Time;durP1;ratioP1;P1;durP2;ratioP2;P2;SDS_P1;SDS_P2;PMS_P1;PMS_P2;Temp;Humidity;BMP_temperature;BMP_pressure;BME280_temperature;BME280_humidity;BME280_pressure;Samples;Min_cycle;Max_cycle;Signal;HPM_P1;HPM_P2
2023/05/07 00:02:04;;;;;;;;;;;;;;;;;;5013107;28;19924;-61
2023/05/07 00:04:35;;;;;;;;;;;;;;;;;;4997003;28;20418;-61
2023/05/07 00:07:00;;;;;;;;;;;;;;;;;;5014693;28;19929;-61
2023/05/07 00:09:26;;;;;;;;;;;;;;;;;;5015403;28;19925;-61
2023/05/07 00:11:51;;;;;;;;;;;;;;;;;;4993774;28;20280;-60
2023/05/07 00:14:16;;;;;;;;;;;;;;;;;;5012554;28;20294;-61
2023/05/07 00:16:42;;;;;;;;;;;;;;;;;;5013844;28;19969;-62
2023/05/07 00:19:07;;;;;;;;;;;;;;;;;;5013344;28;19963;-61
2023/05/07 00:21:32;;;;;;;;;;;;;;;;;;5013440;28;19921;-61
2023/05/07 00:23:58;;;;;;;;;;;;;;;;;;5014795;28;19952;-61
2023/05/07 00:26:23;;;;;;;;;;;;;;;;;;4995730;28;19930;-62
2023/05/07 00:28:50;;;;;;;;;;;;;;;;;;5014527;28;19922;-60
2023/05/07 00:31:15;;;;;;;;;;;;;;;;;;4994420;28;19928;-60
2023/05/07 00:33:40;;;;;;;;;;;;;;;;;;5014832;28;20512;-62
2023/05/07 00:36:06;;;;;;;;;;;;;;;;;;4996703;28;20302;-60
2023/05/07 00:38:31;;;;;;;;;;;;;;;;;;5014144;28;19972;-62
2023/05/07 00:40:57;;;;;;;;;;;;;;;;;;5012873;28;19922;-61
2023/05/07 00:43:22;;;;;;;;;;;;;;;;;;5014334;28;19924;-61
2023/05/07 00:45:47;;;;;;;;;;;;;;;;;;5013661;28;20442;-60
2023/05/07 00:48:13;;;;;;;;;;;;;;;;;;5013776;28;20326;-61
2023/05/07 00:50:38;;;;;;;;;;;;;;;;;;4979924;28;19922;-62
2023/05/07 00:53:03;;;;;;;;;;;;;;;;;;4996358;28;19998;-61
2023/05/07 00:55:29;;;;;;;;;;;;;;;;;;5013170;28;20361;-61
2023/05/07 00:57:54;;;;;;;;;;;;;;;;;;4996419;28;19917;-61
2023/05/07 01:00:19;;;;;;;;;;;;;;;;;;5013413;28;20298;-60
2023/05/07 01:02:46;;;;;;;;;;;;;;;;;;5013202;28;19925;-62
2023/05/07 01:05:12;;;;;;;;;;;;;;;;;;4995896;28;19929;-61
2023/05/07 01:07:37;;;;;;;;;;;;;;;;;;5013641;28;19936;-61
2023/05/07 01:10:03;;;;;;;;;;;;;;;;;;5013468;28;19921;-60
2023/05/07 01:12:28;;;;;;;;;;;;;;;;;;4995751;28;19929;-61
2023/05/07 01:14:54;;;;;;;;;;;;;;;;;;4996085;28;19921;-60
2023/05/07 01:17:19;;;;;;;;;;;;;;;;;;4995485;28;19940;-60
2023/05/07 01:19:45;;;;;;;;;;;;;;;;;;4995698;28;19921;-62
2023/05/07 01:22:11;;;;;;;;;;;;;;;;;;4979207;28;19917;-60
2023/05/07 01:24:48;;;;;;;;;;;;;;;;;;4991321;28;20420;-60
2023/05/07 01:27:14;;;;;;;;;;;;;;;;;;4995255;28;19918;-61
2023/05/07 01:29:40;;;;;;;;;;;;;;;;;;4995642;28;19933;-61
2023/05/07 01:32:05;;;;;;;;;;;;;;;;;;4991794;28;20437;-62
2023/05/07 01:34:31;;;;;;;;;;;;;;;;;;4993365;28;19922;-61
2023/05/07 01:36:57;;;;;;;;;;;;;;;;;;4993758;28;19918;-65
2023/05/07 01:39:23;;;;;;;;;;;;;;;;;;4993538;28;19940;-61
2023/05/07 01:41:48;;;;;;;;;;;;;;;;;;4993669;28;20403;-61
2023/05/07 01:44:14;;;;;;;;;;;;;;;;;;4989516;28;19925;-61
2023/05/07 01:46:39;;;;;;;;;;;;;;;;;;5008549;28;20347;-61
2023/05/07 01:49:04;;;;;;;;;;;;;;;;;;4988767;28;19918;-62
2023/05/07 01:51:31;;;;;;;;;;;;;;;;;;4992438;28;19922;-63
2023/05/07 01:53:56;;;;;;;;;;;;;;;;;;5008536;28;19944;-62
2023/05/07 01:56:21;;;;;;;;;;;;;;;;;;4992603;28;19922;-61
2023/05/07 01:58:47;;;;;;;;;;;;;;;;;;4989045;28;19918;-62
2023/05/07 02:01:12;;;;;;;;;;;;;;;;;;4988974;28;20310;-60
2023/05/07 02:03:37;;;;;;;;;;;;;;;;;;4992571;28;19922;-61
2023/05/07 02:06:09;;;;;;;;;;;;;;;;;;4991418;28;19936;-61
2023/05/07 02:08:37;;;;;;;;;;;;;;;;;;4991311;28;19925;-60
2023/05/07 02:11:03;;;;;;;;;;;;;;;;;;5007952;28;19921;-61
2023/05/07 02:13:29;;;;;;;;;;;;;;;;;;5007745;28;19918;-62
2023/05/07 02:15:54;;;;;;;;;;;;;;;;;;5007727;28;19929;-61
2023/05/07 02:18:20;;;;;;;;;;;;;;;;;;4991247;28;20100;-61
2023/05/07 02:20:45;;;;;;;;;;;;;;;;;;5007683;28;19951;-60
2023/05/07 02:23:11;;;;;;;;;;;;;;;;;;4991213;28;19918;-61
2023/05/07 02:25:36;;;;;;;;;;;;;;;;;;4989568;28;20377;-62
2023/05/07 02:28:01;;;;;;;;;;;;;;;;;;4974698;28;19922;-62
2023/05/07 02:30:43;;;;;;;;;;;;;;;;;;4987776;28;20025;-62
2023/05/07 02:33:08;;;;;;;;;;;;;;;;;;4971140;28;20018;-61
2023/05/07 02:35:33;;;;;;;;;;;;;;;;;;4971380;28;20347;-60
2023/05/07 02:37:59;;;;;;;;;;;;;;;;;;4971813;28;19925;-61
2023/05/07 02:40:25;;;;;;;;;;;;;;;;;;4971523;28;19922;-60
2023/05/07 02:42:50;;;;;;;;;;;;;;;;;;4971998;28;19924;-61
2023/05/07 02:45:15;;;;;;;;;;;;;;;;;;4972552;28;20029;-63
2023/05/07 02:47:41;;;;;;;;;;;;;;;;;;4971173;28;20003;-63
2023/05/07 02:50:07;;;;;;;;;;;;;;;;;;4971581;28;19957;-61
2023/05/07 02:52:32;;;;;;;;;;;;;;;;;;4971180;28;19918;-60
2023/05/07 02:54:57;;;;;;;;;;;;;;;;;;4955297;28;20009;-60
2023/05/07 02:57:23;;;;;;;;;;;;;;;;;;4987300;28;19918;-61
2023/05/07 02:59:48;;;;;;;;;;;;;;;;;;4971485;28;19972;-61
2023/05/07 03:02:14;;;;;;;;;;;;;;;;;;4970422;28;20391;-60
2023/05/07 03:04:39;;;;;;;;;;;;;;;;;;4971285;28;19949;-60
2023/05/07 03:07:05;;;;;;;;;;;;;;;;;;4970931;28;19930;-62
2023/05/07 03:09:30;;;;;;;;;;;;;;;;;;4963898;28;20358;-61
2023/05/07 03:11:55;;;;;;;;;;;;;;;;;;4971262;28;19918;-61
2023/05/07 03:14:21;;;;;;;;;;;;;;;;;;4971002;28;20312;-61
2023/05/07 03:16:46;;;;;;;;;;;;;;;;;;4971053;28;19929;-62
2023/05/07 03:19:12;;;;;;;;;;;;;;;;;;4971059;28;19924;-62
2023/05/07 03:21:37;;;;;;;;;;;;;;;;;;4969252;28;19926;-62
2023/05/07 03:24:02;;;;;;;;;;;;;;;;;;4969774;28;20586;-61
2023/05/07 03:26:28;;;;;;;;;;;;;;;;;;4959028;28;20477;-62
2023/05/07 03:28:53;;;;;;;;;;;;;;;;;;4971363;28;19918;-60
2023/05/07 03:31:18;;;;;;;;;;;;;;;;;;4981331;28;19964;-61
2023/05/07 03:33:44;;;;;;;;;;;;;;;;;;4991784;28;19937;-61
2023/05/07 03:36:09;;;;;;;;;;;;;;;;;;4991488;28;19922;-62
2023/05/07 03:38:34;;;;;;;;;;;;;;;;;;4994281;28;20383;-62
2023/05/07 03:41:00;;;;;;;;;;;;;;;;;;4994595;28;19922;-62
2023/05/07 03:43:25;;;;;;;;;;;;;;;;;;4994007;28;19941;-62
2023/05/07 03:45:58;;;;;;;;;;;;;;;;;;5010241;28;19934;-62
2023/05/07 03:48:26;;;;;;;;;;;;;;;;;;4994133;28;19917;-63
2023/05/07 03:50:53;;;;;;;;;;;;;;;;;;5010715;28;20375;-62
2023/05/07 03:53:19;;;;;;;;;;;;;;;;;;5010192;28;19924;-61
2023/05/07 03:55:45;;;;;;;;;;;;;;;;;;4995400;28;20414;-61
2023/05/07 03:58:10;;;;;;;;;;;;;;;;;;4993862;28;19918;-61
2023/05/07 04:00:38;;;;;;;;;;;;;;;;;;4994112;28;19921;-61
2023/05/07 04:03:11;;;;;;;;;;;;;;;;;;4993700;28;19917;-59
2023/05/07 04:05:36;;;;;;;;;;;;;;;;;;4992589;28;19937;-62
2023/05/07 04:08:02;;;;;;;;;;;;;;;;;;5009757;28;19921;-61
2023/05/07 04:10:38;;;;;;;;;;;;;;;;;;5002575;28;20513;-62
2023/05/07 04:13:07;;;;;;;;;;;;;;;;;;4993801;28;19918;-61
2023/05/07 04:15:33;;;;;;;;;;;;;;;;;;4992853;28;19921;-61
2023/05/07 04:17:58;;;;;;;;;;;;;;;;;;4993845;28;19944;-62
2023/05/07 04:20:24;;;;;;;;;;;;;;;;;;4993003;28;19925;-61
2023/05/07 04:22:56;;;;;;;;;;;;;;;;;;4994638;28;19918;-61
2023/05/07 04:25:26;;;;;;;;;;;;;;;;;;4993424;28;20454;-61
2023/05/07 04:27:55;;;;;;;;;;;;;;;;;;5009668;28;19961;-61
2023/05/07 04:30:24;;;;;;;;;;;;;;;;;;5010713;28;19922;-61
2023/05/07 04:32:49;;;;;;;;;;;;;;;;;;4996334;28;19932;-62
2023/05/07 04:35:14;;;;;;;;;;;;;;;;;;4996350;28;20422;-62
2023/05/07 04:37:40;;;;;;;;;;;;;;;;;;4996198;28;20274;-62
2023/05/07 04:40:05;;;;;;;;;;;;;;;;;;4996405;28;19921;-61
2023/05/07 04:42:31;;;;;;;;;;;;;;;;;;5012580;28;19921;-61
2023/05/07 04:44:57;;;;;;;;;;;;;;;;;;4996514;28;20022;-61
2023/05/07 04:47:23;;;;;;;;;;;;;;;;;;4995751;28;20010;-61
2023/05/07 04:49:49;;;;;;;;;;;;;;;;;;4980249;28;20397;-62
2023/05/07 04:52:15;;;;;;;;;;;;;;;;;;5013101;28;19964;-61
2023/05/07 04:54:40;;;;;;;;;;;;;;;;;;4996387;28;19930;-62
2023/05/07 04:57:06;;;;;;;;;;;;;;;;;;4995862;28;20306;-61
2023/05/07 04:59:32;;;;;;;;;;;;;;;;;;5012234;28;19983;-63
2023/05/07 05:01:57;;;;;;;;;;;;;;;;;;4996346;28;19921;-63
2023/05/07 05:04:23;;;;;;;;;;;;;;;;;;5013255;28;19924;-60
2023/05/07 05:06:49;;;;;;;;;;;;;;;;;;4996084;28;19937;-62
2023/05/07 05:09:15;;;;;;;;;;;;;;;;;;4995441;28;19918;-61
2023/05/07 05:11:41;;;;;;;;;;;;;;;;;;5013448;28;19922;-61
2023/05/07 05:14:06;;;;;;;;;;;;;;;;;;5013875;28;19924;-62
2023/05/07 05:16:31;;;;;;;;;;;;;;;;;;4995500;28;19921;-62
2023/05/07 05:18:57;;;;;;;;;;;;;;;;;;4989778;28;19918;-61
2023/05/07 05:21:22;;;;;;;;;;;;;;;;;;4995305;28;19972;-62
2023/05/07 05:23:51;;;;;;;;;;;;;;;;;;5013741;28;19918;-62
2023/05/07 05:26:21;;;;;;;;;;;;;;;;;;5011418;28;20489;-62
2023/05/07 05:28:46;;;;;;;;;;;;;;;;;;5012110;28;19940;-61
2023/05/07 05:31:12;;;;;;;;;;;;;;;;;;4995149;28;20395;-62
2023/05/07 05:33:37;;;;;;;;;;;;;;;;;;4995235;28;19917;-62
2023/05/07 05:36:04;;;;;;;;;;;;;;;;;;4979303;28;20397;-62
2023/05/07 05:38:29;;;;;;;;;;;;;;;;;;4995138;28;19953;-61
2023/05/07 05:40:54;;;;;;;;;;;;;;;;;;4995133;28;20003;-61
2023/05/07 05:43:20;;;;;;;;;;;;;;;;;;4995301;28;19956;-61
2023/05/07 05:45:45;;;;;;;;;;;;;;;;;;5012593;28;19929;-62
2023/05/07 05:48:11;;;;;;;;;;;;;;;;;;5012931;28;20286;-62
2023/05/07 05:50:37;;;;;;;;;;;;;;;;;;4994618;28;19921;-60
2023/05/07 05:53:03;;;;;;;;;;;;;;;;;;4995110;28;20008;-62
2023/05/07 05:55:28;;;;;;;;;;;;;;;;;;5011145;28;20023;-61
2023/05/07 05:57:54;;;;;;;;;;;;;;;;;;5011394;28;20025;-62
2023/05/07 06:00:22;;;;;;;;;;;;;;;;;;4991841;28;19929;-62
2023/05/07 06:02:54;;;;;;;;;;;;;;;;;;4991676;28;19981;-61
2023/05/07 06:05:22;;;;;;;;;;;;;;;;;;5010695;28;20024;-61
2023/05/07 06:07:51;;;;;;;;;;;;;;;;;;5011143;28;19971;-60
2023/05/07 06:10:16;;;;;;;;;;;;;;;;;;4994593;28;19922;-62
2023/05/07 06:12:42;;;;;;;;;;;;;;;;;;4994670;28;20368;-61
2023/05/07 06:15:07;;;;;;;;;;;;;;;;;;5011998;28;19921;-62
2023/05/07 06:17:33;;;;;;;;;;;;;;;;;;5011969;28;19921;-60
2023/05/07 06:19:58;;;;;;;;;;;;;;;;;;4994401;28;20421;-63
2023/05/07 06:22:24;;;;;;;;;;;;;;;;;;5012283;28;19972;-62
2023/05/07 06:24:49;;;;;;;;;;;;;;;;;;4993399;28;20392;-58
2023/05/07 06:27:14;;;;;;;;;;;;;;;;;;4990110;28;20176;-62
2023/05/07 06:29:40;;;;;;;;;;;;;;;;;;5011169;28;20135;-62
2023/05/07 06:32:11;;;;;;;;;;;;;;;;;;4991269;28;19936;-62
2023/05/07 06:34:38;;;;;;;;;;;;;;;;;;4972647;28;20488;-61
2023/05/07 06:37:04;;;;;;;;;;;;;;;;;;4990778;28;19918;-62
2023/05/07 06:39:43;;;;;;;;;;;;;;;;;;4991875;28;19927;-61
2023/05/07 06:42:08;;;;;;;;;;;;;;;;;;5008904;28;19918;-59
2023/05/07 06:44:41;;;;;;;;;;;;;;;;;;4991721;28;20128;-60
2023/05/07 06:47:10;;;;;;;;;;;;;;;;;;5008299;28;19925;-62
2023/05/07 06:49:38;;;;;;;;;;;;;;;;;;5004395;28;19945;-61
2023/05/07 06:52:03;;;;;;;;;;;;;;;;;;4973920;28;20322;-61
2023/05/07 06:54:29;;;;;;;;;;;;;;;;;;4992354;28;20329;-63
2023/05/07 06:57:03;;;;;;;;;;;;;;;;;;4977927;28;19941;-62
2023/05/07 06:59:29;;;;;;;;;;;;;;;;;;4972902;28;19921;-63
2023/05/07 07:01:55;;;;;;;;;;;;;;;;;;4976294;28;19917;-62
2023/05/07 07:04:22;;;;;;;;;;;;;;;;;;4990928;28;19924;-62
2023/05/07 07:06:53;;;;;;;;;;;;;;;;;;4972657;28;20408;-62
2023/05/07 07:09:18;;;;;;;;;;;;;;;;;;4990953;28;19929;-62
2023/05/07 07:11:43;;;;;;;;;;;;;;;;;;5007602;28;20352;-62
2023/05/07 07:14:09;;;;;;;;;;;;;;;;;;4988690;28;19922;-62
2023/05/07 07:16:40;;;;;;;;;;;;;;;;;;4990660;28;19922;-61
2023/05/07 07:19:06;;;;;;;;;;;;;;;;;;4988806;28;19941;-63
2023/05/07 07:21:31;;;;;;;;;;;;;;;;;;4992163;28;19929;-64
2023/05/07 07:23:57;;;;;;;;;;;;;;;;;;4990124;28;19918;-62
2023/05/07 07:26:22;;;;;;;;;;;;;;;;;;4992780;28;20087;-62
2023/05/07 07:28:48;;;;;;;;;;;;;;;;;;4990833;28;20425;-61
2023/05/07 07:31:16;;;;;;;;;;;;;;;;;;4971528;28;20409;-61
2023/05/07 07:33:42;;;;;;;;;;;;;;;;;;4989798;28;19926;-60
2023/05/07 07:36:08;;;;;;;;;;;;;;;;;;4990823;28;19932;-62
2023/05/07 07:38:33;;;;;;;;;;;;;;;;;;5010751;28;20393;-59
2023/05/07 07:40:58;;;;;;;;;;;;;;;;;;4992761;28;20409;-62
2023/05/07 07:43:24;;;;;;;;;;;;;;;;;;4990131;28;19922;-62
2023/05/07 07:45:49;;;;;;;;;;;;;;;;;;5007799;28;19929;-63
2023/05/07 07:48:15;;;;;;;;;;;;;;;;;;5000785;28;19921;-61
2023/05/07 07:50:40;;;;;;;;;;;;;;;;;;4989491;28;19928;-61
2023/05/07 07:53:06;;;;;;;;;;;;;;;;;;4988779;28;20300;-62
2023/05/07 07:55:32;;;;;;;;;;;;;;;;;;5008271;28;19921;-62
2023/05/07 07:57:58;;;;;;;;;;;;;;;;;;4990884;28;19921;-62
2023/05/07 08:00:24;;;;;;;;;;;;;;;;;;4999951;28;19925;-61
2023/05/07 08:02:53;;;;;;;;;;;;;;;;;;4990833;28;19944;-61
2023/05/07 08:05:23;;;;;;;;;;;;;;;;;;5006167;28;20016;-63
2023/05/07 08:07:53;;;;;;;;;;;;;;;;;;4988498;28;20012;-61
2023/05/07 08:10:22;;;;;;;;;;;;;;;;;;4988275;28;20310;-61
2023/05/07 08:12:52;;;;;;;;;;;;;;;;;;4989680;28;19921;-61
2023/05/07 08:15:18;;;;;;;;;;;;;;;;;;5006468;28;19975;-64
2023/05/07 08:17:44;;;;;;;;;;;;;;;;;;4990495;28;19953;-62
2023/05/07 08:20:09;;;;;;;;;;;;;;;;;;4989470;28;19926;-62
2023/05/07 08:22:34;;;;;;;;;;;;;;;;;;4974421;28;19917;-63
2023/05/07 08:25:00;;;;;;;;;;;;;;;;;;4993942;28;20318;-62
2023/05/07 08:27:25;;;;;;;;;;;;;;;;;;4993420;28;19925;-61
2023/05/07 08:29:50;;;;;;;;;;;;;;;;;;5013788;28;19921;-61
2023/05/07 08:32:17;;;;;;;;;;;;;;;;;;4993715;28;19926;-61
2023/05/07 08:34:42;;;;;;;;;;;;;;;;;;4978157;28;20425;-62
2023/05/07 08:37:08;;;;;;;;;;;;;;;;;;4975324;28;19971;-61
2023/05/07 08:39:34;;;;;;;;;;;;;;;;;;5010843;28;20151;-62
2023/05/07 08:41:59;;;;;;;;;;;;;;;;;;4993684;28;19972;-62
2023/05/07 08:44:25;;;;;;;;;;;;;;;;;;4995757;28;20312;-62
2023/05/07 08:46:51;;;;;;;;;;;;;;;;;;4978223;28;19929;-61
2023/05/07 08:49:17;;;;;;;;;;;;;;;;;;4994697;28;19933;-63
2023/05/07 08:51:42;;;;;;;;;;;;;;;;;;4994209;28;19921;-63
2023/05/07 08:54:07;;;;;;;;;;;;;;;;;;5012492;28;20446;-61
2023/05/07 08:56:33;;;;;;;;;;;;;;;;;;4993644;28;20059;-61
2023/05/07 08:58:59;;;;;;;;;;;;;;;;;;5011242;28;19921;-62
2023/05/07 09:01:26;;;;;;;;;;;;;;;;;;5010982;28;20015;-62
2023/05/07 09:03:51;;;;;;;;;;;;;;;;;;4991991;28;20508;-61
2023/05/07 09:06:17;;;;;;;;;;;;;;;;;;5009523;28;19929;-63
2023/05/07 09:08:42;;;;;;;;;;;;;;;;;;4991988;28;20304;-63
2023/05/07 09:11:08;;;;;;;;;;;;;;;;;;5010283;28;19933;-63
2023/05/07 09:13:33;;;;;;;;;;;;;;;;;;5012877;28;19918;-63
2023/05/07 09:16:00;;;;;;;;;;;;;;;;;;5011393;28;20462;-62
2023/05/07 09:18:26;;;;;;;;;;;;;;;;;;4993703;28;20019;-63
2023/05/07 09:20:52;;;;;;;;;;;;;;;;;;4995396;28;20343;-60
2023/05/07 09:23:19;;;;;;;;;;;;;;;;;;4993488;28;20220;-61
2023/05/07 09:25:44;;;;;;;;;;;;;;;;;;4994335;28;19937;-61
2023/05/07 09:28:19;;;;;;;;;;;;;;;;;;4977999;28;19921;-65
2023/05/07 09:30:45;;;;;;;;;;;;;;;;;;5009116;28;19944;-63
2023/05/07 09:33:11;;;;;;;;;;;;;;;;;;4990732;28;20298;-63
2023/05/07 09:35:40;;;;;;;;;;;;;;;;;;4990024;28;20238;-61
2023/05/07 09:38:09;;;;;;;;;;;;;;;;;;4989943;28;19945;-63
2023/05/07 09:40:35;;;;;;;;;;;;;;;;;;4987838;28;19925;-61
2023/05/07 09:43:05;;;;;;;;;;;;;;;;;;4992587;28;19918;-62
2023/05/07 09:45:30;;;;;;;;;;;;;;;;;;4993277;28;20358;-64
2023/05/07 09:47:57;;;;;;;;;;;;;;;;;;4988750;28;20008;-63
2023/05/07 09:50:23;;;;;;;;;;;;;;;;;;4990120;28;20537;-61
2023/05/07 09:52:48;;;;;;;;;;;;;;;;;;4987979;28;20020;-62
2023/05/07 09:55:13;;;;;;;;;;;;;;;;;;4989656;28;19969;-63
2023/05/07 09:57:39;;;;;;;;;;;;;;;;;;4986739;28;19918;-64
2023/05/07 10:00:08;;;;;;;;;;;;;;;;;;4983857;28;19964;-62
2023/05/07 10:02:48;;;;;;;;;;;;;;;;;;4982053;28;20004;-62
2023/05/07 10:05:13;;;;;;;;;;;;;;;;;;4974163;28;19923;-62
2023/05/07 10:07:39;;;;;;;;;;;;;;;;;;4987791;28;19933;-61
2023/05/07 10:10:07;;;;;;;;;;;;;;;;;;4986881;28;19918;-61
2023/05/07 10:12:40;;;;;;;;;;;;;;;;;;4987722;28;19934;-62
2023/05/07 10:15:11;;;;;;;;;;;;;;;;;;4979556;28;19922;-61
2023/05/07 10:17:37;;;;;;;;;;;;;;;;;;4991056;28;20366;-64
2023/05/07 10:20:03;;;;;;;;;;;;;;;;;;4976296;28;19945;-63
2023/05/07 10:22:29;;;;;;;;;;;;;;;;;;5009917;28;19918;-63
2023/05/07 10:24:54;;;;;;;;;;;;;;;;;;4990363;28;19944;-63
2023/05/07 10:27:20;;;;;;;;;;;;;;;;;;4991079;28;19953;-62
2023/05/07 10:29:53;;;;;;;;;;;;;;;;;;4972100;28;20334;-65
2023/05/07 10:32:19;;;;;;;;;;;;;;;;;;4973011;28;19926;-64
2023/05/07 10:34:44;;;;;;;;;;;;;;;;;;4991148;28;19922;-63
2023/05/07 10:37:10;;;;;;;;;;;;;;;;;;4988533;28;20018;-64
2023/05/07 10:39:35;;;;;;;;;;;;;;;;;;4988304;28;19957;-67
2023/05/07 10:42:02;;;;;;;;;;;;;;;;;;4986548;28;19922;-66
2023/05/07 10:44:27;;;;;;;;;;;;;;;;;;4988886;28;19918;-68
2023/05/07 10:46:54;;;;;;;;;;;;;;;;;;4987768;28;19995;-67
2023/05/07 10:49:19;;;;;;;;;;;;;;;;;;4988448;28;20398;-67
2023/05/07 10:51:50;;;;;;;;;;;;;;;;;;4972095;28;19948;-65
2023/05/07 10:54:20;;;;;;;;;;;;;;;;;;5006382;28;20326;-65
2023/05/07 10:56:54;;;;;;;;;;;;;;;;;;4984799;28;20340;-68
2023/05/07 10:59:27;;;;;;;;;;;;;;;;;;4987839;28;19924;-65
2023/05/07 11:01:54;;;;;;;;;;;;;;;;;;5004410;28;19928;-65
2023/05/07 11:04:31;;;;;;;;;;;;;;;;;;4988308;28;19957;-63
2023/05/07 11:07:31;;;;;;;;;;;;;;;;;;4976909;28;19929;-64
2023/05/07 11:10:05;;;;;;;;;;;;;;;;;;4981461;28;20008;-62
2023/05/07 11:12:57;;;;;;;;;;;;;;;;;;4979327;28;20298;-62
2023/05/07 11:15:39;;;;;;;;;;;;;;;;;;4998011;28;19926;-64
2023/05/07 11:18:11;;;;;;;;;;;;;;;;;;4979657;28;20434;-64
2023/05/07 11:20:38;;;;;;;;;;;;;;;;;;4991901;28;19926;-65
2023/05/07 11:23:14;;;;;;;;;;;;;;;;;;4979382;28;20387;-63
2023/05/07 11:25:47;;;;;;;;;;;;;;;;;;4984761;28;19930;-63
2023/05/07 11:28:17;;;;;;;;;;;;;;;;;;4987745;28;19918;-64
2023/05/07 11:30:49;;;;;;;;;;;;;;;;;;4983365;28;19949;-64
2023/05/07 11:33:17;;;;;;;;;;;;;;;;;;4984933;28;19926;-64
2023/05/07 11:35:42;;;;;;;;;;;;;;;;;;4986899;28;19921;-65
2023/05/07 11:38:10;;;;;;;;;;;;;;;;;;4968798;28;20004;-65
2023/05/07 11:40:35;;;;;;;;;;;;;;;;;;4987716;28;20371;-65
2023/05/07 11:43:00;;;;;;;;;;;;;;;;;;4990329;28;19917;-73
2023/05/07 11:45:26;;;;;;;;;;;;;;;;;;4988401;28;20016;-68
2023/05/07 11:47:51;;;;;;;;;;;;;;;;;;4988663;28;19932;-67
2023/05/07 11:50:16;;;;;;;;;;;;;;;;;;4986142;28;19922;-68
2023/05/07 11:52:42;;;;;;;;;;;;;;;;;;4988551;28;19918;-66
2023/05/07 11:55:07;;;;;;;;;;;;;;;;;;4986268;28;19921;-69
2023/05/07 11:57:32;;;;;;;;;;;;;;;;;;4972352;28;20367;-66
2023/05/07 11:59:58;;;;;;;;;;;;;;;;;;4991386;28;19929;-66
2023/05/07 12:02:24;;;;;;;;;;;;;;;;;;4992146;28;20294;-67
2023/05/07 12:04:50;;;;;;;;;;;;;;;;;;4993355;28;20008;-73
2023/05/07 12:07:16;;;;;;;;;;;;;;;;;;4972419;28;20017;-75
2023/05/07 12:09:41;;;;;;;;;;;;;;;;;;4990437;28;19957;-65
2023/05/07 12:12:07;;;;;;;;;;;;;;;;;;4991624;28;19957;-68
2023/05/07 12:14:32;;;;;;;;;;;;;;;;;;4992496;28;19932;-68
2023/05/07 12:16:58;;;;;;;;;;;;;;;;;;4990441;28;19929;-66
2023/05/07 12:19:23;;;;;;;;;;;;;;;;;;4985619;28;19917;-64
2023/05/07 12:21:48;;;;;;;;;;;;;;;;;;4980336;28;19926;-65
2023/05/07 12:24:13;;;;;;;;;;;;;;;;;;4988753;28;19918;-64
2023/05/07 12:26:40;;;;;;;;;;;;;;;;;;4991848;28;20395;-65
2023/05/07 12:29:05;;;;;;;;;;;;;;;;;;4985900;28;19917;-64
2023/05/07 12:31:31;;;;;;;;;;;;;;;;;;4990467;28;19928;-64
2023/05/07 12:33:56;;;;;;;;;;;;;;;;;;5008550;28;19951;-64
2023/05/07 12:36:21;;;;;;;;;;;;;;;;;;5013114;28;19925;-63
2023/05/07 12:38:46;;;;;;;;;;;;;;;;;;5013007;28;19953;-63
2023/05/07 12:41:12;;;;;;;;;;;;;;;;;;5013504;28;20369;-63
2023/05/07 12:43:38;;;;;;;;;;;;;;;;;;5011713;28;19927;-64
2023/05/07 12:46:03;;;;;;;;;;;;;;;;;;5013395;28;20494;-63
2023/05/07 12:48:28;;;;;;;;;;;;;;;;;;5013363;28;19925;-65
2023/05/07 12:50:54;;;;;;;;;;;;;;;;;;5013185;28;19929;-64
2023/05/07 12:53:19;;;;;;;;;;;;;;;;;;5011990;28;19960;-64
2023/05/07 12:55:45;;;;;;;;;;;;;;;;;;5010863;28;19922;-64
2023/05/07 12:58:10;;;;;;;;;;;;;;;;;;4992105;28;19917;-65
2023/05/07 13:00:35;;;;;;;;;;;;;;;;;;5011176;28;19922;-64
2023/05/07 13:03:01;;;;;;;;;;;;;;;;;;4990052;28;19925;-65
2023/05/07 13:05:26;;;;;;;;;;;;;;;;;;4993491;28;19928;-66
2023/05/07 13:07:51;;;;;;;;;;;;;;;;;;5006451;28;19921;-64
2023/05/07 13:10:17;;;;;;;;;;;;;;;;;;4992401;28;19929;-64
2023/05/07 13:12:42;;;;;;;;;;;;;;;;;;5011275;28;20292;-64
2023/05/07 13:15:07;;;;;;;;;;;;;;;;;;5011588;28;19922;-64
2023/05/07 13:17:33;;;;;;;;;;;;;;;;;;5011584;28;19932;-64
2023/05/07 13:19:58;;;;;;;;;;;;;;;;;;5006169;28;20471;-65
2023/05/07 13:22:23;;;;;;;;;;;;;;;;;;5011309;28;19917;-66
2023/05/07 13:24:49;;;;;;;;;;;;;;;;;;5009943;28;19976;-65
2023/05/07 13:27:15;;;;;;;;;;;;;;;;;;5010681;28;20027;-65
2023/05/07 13:29:40;;;;;;;;;;;;;;;;;;4993113;28;20417;-66
2023/05/07 13:32:05;;;;;;;;;;;;;;;;;;5009739;28;20028;-66
2023/05/07 13:34:31;;;;;;;;;;;;;;;;;;5009624;28;19921;-65
2023/05/07 13:36:56;;;;;;;;;;;;;;;;;;5009386;28;19952;-67
2023/05/07 13:39:22;;;;;;;;;;;;;;;;;;5010724;28;19921;-66
2023/05/07 13:41:47;;;;;;;;;;;;;;;;;;4992130;28;19921;-65
2023/05/07 13:44:12;;;;;;;;;;;;;;;;;;5010515;28;20000;-68
2023/05/07 13:46:38;;;;;;;;;;;;;;;;;;4989797;28;19941;-66
2023/05/07 13:49:03;;;;;;;;;;;;;;;;;;4989285;28;19917;-67
2023/05/07 13:51:28;;;;;;;;;;;;;;;;;;5009966;28;19925;-65
2023/05/07 13:53:54;;;;;;;;;;;;;;;;;;5009819;28;19921;-68
2023/05/07 13:56:20;;;;;;;;;;;;;;;;;;5010362;28;19921;-66
2023/05/07 13:58:45;;;;;;;;;;;;;;;;;;5010232;28;19980;-65
2023/05/07 14:01:10;;;;;;;;;;;;;;;;;;4992115;28;20407;-64
2023/05/07 14:03:37;;;;;;;;;;;;;;;;;;5010336;28;19936;-65
2023/05/07 14:06:02;;;;;;;;;;;;;;;;;;5009275;28;20007;-66
2023/05/07 14:08:28;;;;;;;;;;;;;;;;;;4992326;28;19921;-64
2023/05/07 14:10:53;;;;;;;;;;;;;;;;;;5010480;28;19956;-65
2023/05/07 14:13:19;;;;;;;;;;;;;;;;;;5008557;28;20275;-64
2023/05/07 14:15:48;;;;;;;;;;;;;;;;;;5009242;28;20414;-65
2023/05/07 14:18:14;;;;;;;;;;;;;;;;;;4983705;28;19987;-64
2023/05/07 14:20:39;;;;;;;;;;;;;;;;;;5002326;28;20390;-68
2023/05/07 14:23:05;;;;;;;;;;;;;;;;;;4978725;28;19917;-68
2023/05/07 14:25:30;;;;;;;;;;;;;;;;;;4992019;28;20294;-65
2023/05/07 14:27:55;;;;;;;;;;;;;;;;;;4992231;28;20387;-64
2023/05/07 14:30:24;;;;;;;;;;;;;;;;;;5008548;28;19921;-68
2023/05/07 14:32:49;;;;;;;;;;;;;;;;;;5010256;28;20353;-68
2023/05/07 14:35:15;;;;;;;;;;;;;;;;;;4991134;28;20052;-68
2023/05/07 14:37:40;;;;;;;;;;;;;;;;;;5009319;28;20386;-68
2023/05/07 14:40:06;;;;;;;;;;;;;;;;;;5008694;28;19922;-67
2023/05/07 14:42:31;;;;;;;;;;;;;;;;;;5008278;28;20284;-67
2023/05/07 14:44:57;;;;;;;;;;;;;;;;;;5009651;28;19967;-67
2023/05/07 14:47:25;;;;;;;;;;;;;;;;;;5008870;28;19929;-66
2023/05/07 14:49:51;;;;;;;;;;;;;;;;;;5008726;28;19921;-65
2023/05/07 14:52:16;;;;;;;;;;;;;;;;;;4990708;28;20011;-67
2023/05/07 14:54:42;;;;;;;;;;;;;;;;;;5008545;28;20060;-66
2023/05/07 14:57:07;;;;;;;;;;;;;;;;;;5008364;28;19918;-66
2023/05/07 14:59:33;;;;;;;;;;;;;;;;;;5009283;28;19944;-67
2023/05/07 15:01:58;;;;;;;;;;;;;;;;;;5009035;28;19925;-67
2023/05/07 15:04:24;;;;;;;;;;;;;;;;;;4990927;28;20337;-65
2023/05/07 15:06:50;;;;;;;;;;;;;;;;;;4990888;28;20024;-66
2023/05/07 15:09:15;;;;;;;;;;;;;;;;;;5007724;28;20011;-67
2023/05/07 15:11:41;;;;;;;;;;;;;;;;;;5008125;28;19967;-65
2023/05/07 15:14:06;;;;;;;;;;;;;;;;;;5007847;28;19917;-69
2023/05/07 15:16:32;;;;;;;;;;;;;;;;;;5008353;28;20386;-69
2023/05/07 15:19:01;;;;;;;;;;;;;;;;;;5007857;28;19964;-66
2023/05/07 15:21:26;;;;;;;;;;;;;;;;;;5008031;28;19930;-66
2023/05/07 15:23:52;;;;;;;;;;;;;;;;;;5004055;28;19921;-64
2023/05/07 15:26:17;;;;;;;;;;;;;;;;;;5009618;28;19929;-65
2023/05/07 15:28:43;;;;;;;;;;;;;;;;;;4989180;28;19918;-66
2023/05/07 15:31:09;;;;;;;;;;;;;;;;;;5006307;28;19925;-65
2023/05/07 15:33:34;;;;;;;;;;;;;;;;;;5009011;28;19929;-65
2023/05/07 15:36:00;;;;;;;;;;;;;;;;;;5009687;28;19949;-68
2023/05/07 15:38:25;;;;;;;;;;;;;;;;;;5002225;28;19918;-68
2023/05/07 15:40:51;;;;;;;;;;;;;;;;;;4989805;28;20024;-62
2023/05/07 15:43:17;;;;;;;;;;;;;;;;;;5007986;28;19917;-65
2023/05/07 15:45:42;;;;;;;;;;;;;;;;;;4992153;28;19928;-66
2023/05/07 15:48:07;;;;;;;;;;;;;;;;;;5007923;28;19963;-67
2023/05/07 15:50:33;;;;;;;;;;;;;;;;;;5008274;28;19960;-67
2023/05/07 15:52:58;;;;;;;;;;;;;;;;;;5008501;28;20020;-70
2023/05/07 15:55:24;;;;;;;;;;;;;;;;;;5007642;28;20417;-67
2023/05/07 15:57:50;;;;;;;;;;;;;;;;;;5008147;28;19936;-70
2023/05/07 16:00:16;;;;;;;;;;;;;;;;;;5008547;28;19929;-68
2023/05/07 16:02:44;;;;;;;;;;;;;;;;;;5008647;28;20359;-72
2023/05/07 16:05:11;;;;;;;;;;;;;;;;;;5008365;28;20020;-62
2023/05/07 16:07:36;;;;;;;;;;;;;;;;;;5007823;28;20659;-62
2023/05/07 16:10:02;;;;;;;;;;;;;;;;;;5008423;28;19922;-62
2023/05/07 16:12:28;;;;;;;;;;;;;;;;;;5008785;28;19917;-63
2023/05/07 16:14:53;;;;;;;;;;;;;;;;;;4991341;28;19922;-62
2023/05/07 16:17:19;;;;;;;;;;;;;;;;;;5008067;28;19968;-62
2023/05/07 16:19:45;;;;;;;;;;;;;;;;;;5007535;28;19968;-62
2023/05/07 16:22:10;;;;;;;;;;;;;;;;;;5007352;28;19918;-61
2023/05/07 16:24:36;;;;;;;;;;;;;;;;;;5007370;28;19925;-62
2023/05/07 16:27:02;;;;;;;;;;;;;;;;;;5008265;28;19933;-62
2023/05/07 16:29:27;;;;;;;;;;;;;;;;;;5006989;28;19917;-63
2023/05/07 16:31:53;;;;;;;;;;;;;;;;;;5008581;28;19968;-60
2023/05/07 16:34:18;;;;;;;;;;;;;;;;;;5005975;28;19929;-63
2023/05/07 16:36:44;;;;;;;;;;;;;;;;;;5006905;28;19922;-64
2023/05/07 16:39:09;;;;;;;;;;;;;;;;;;5007502;28;19961;-66
2023/05/07 16:41:35;;;;;;;;;;;;;;;;;;5007490;28;19926;-67